createdAt,value
2022-10-20T00:04:29.624Z,100949.06
2022-10-20T00:09:34.480Z,100941.56
2022-10-20T00:14:36.393Z,100948.09
2022-10-20T00:19:38.339Z,100946.28
2022-10-20T00:24:40.411Z,100934.69
2022-10-20T00:29:42.391Z,100929.00
2022-10-20T00:34:44.256Z,100917.94
2022-10-20T00:39:46.103Z,100914.53
2022-10-20T00:44:59.839Z,100922.16
2022-10-20T00:50:18.562Z,100911.19
2022-10-20T00:55:25.970Z,100922.25
2022-10-20T01:00:29.200Z,100908.00
2022-10-20T01:05:31.048Z,100911.47
2022-10-20T01:10:42.027Z,100890.88
2022-10-20T01:16:09.475Z,100887.28
2022-10-20T01:21:13.290Z,100894.66
2022-10-20T01:26:30.330Z,100890.25
2022-10-20T01:31:44.758Z,100895.59
2022-10-20T01:37:00.774Z,100900.88
2022-10-20T01:42:09.757Z,100898.66
2022-10-20T01:47:13.948Z,100881.00
2022-10-20T01:52:16.066Z,100881.81
2022-10-20T01:57:38.898Z,100893.91
2022-10-20T02:02:59.073Z,100897.47
2022-10-20T02:08:13.746Z,100886.50
2022-10-20T02:13:28.067Z,100885.53
2022-10-20T02:18:39.986Z,100886.31
2022-10-20T02:23:46.324Z,100872.09
2022-10-20T02:29:00.855Z,100860.06
2022-10-20T02:34:03.552Z,100863.75
2022-10-20T02:39:05.438Z,100874.31
2022-10-20T02:44:07.253Z,100874.88
2022-10-20T02:49:09.397Z,100865.06
2022-10-20T02:54:13.590Z,100867.28
2022-10-20T02:59:16.997Z,100858.34
2022-10-20T03:04:27.053Z,100856.63
2022-10-20T03:09:29.103Z,100870.28
2022-10-20T03:14:31.321Z,100870.94
2022-10-20T03:19:35.633Z,100878.44
2022-10-20T03:24:37.433Z,100864.75
2022-10-20T03:29:39.194Z,100866.88
2022-10-20T03:34:40.895Z,100870.16
2022-10-20T03:39:42.674Z,100883.94
2022-10-20T03:44:45.268Z,100888.31
2022-10-20T03:49:47.046Z,100870.47
2022-10-20T03:54:48.930Z,100875.41
2022-10-20T03:59:50.675Z,100881.31
2022-10-20T04:04:52.676Z,100881.09
2022-10-20T04:09:57.602Z,100866.31
2022-10-20T04:14:59.419Z,100858.63
2022-10-20T04:20:01.218Z,100871.09
2022-10-20T04:25:04.409Z,100875.03
2022-10-20T04:30:07.106Z,100883.28
2022-10-20T04:35:09.441Z,100869.81
2022-10-20T04:40:11.662Z,100863.19
2022-10-20T04:45:13.467Z,100859.91
2022-10-20T04:50:15.280Z,100865.31
2022-10-20T04:55:17.298Z,100860.97
2022-10-20T05:00:19.026Z,100860.44
2022-10-20T05:05:21.129Z,100841.44
2022-10-20T05:10:22.937Z,100859.31
2022-10-20T05:15:24.687Z,100859.81
2022-10-20T05:20:26.376Z,100838.47
2022-10-20T05:25:36.626Z,100847.88
2022-10-20T05:30:38.708Z,100855.47
2022-10-20T05:35:40.421Z,100852.16
2022-10-20T05:40:42.193Z,100857.44
2022-10-20T05:45:43.876Z,100886.19
2022-10-20T05:55:47.160Z,100886.13
2022-10-20T06:00:52.857Z,100882.16
2022-10-20T06:05:59.151Z,100882.84
2022-10-20T06:11:06.461Z,100882.00
2022-10-20T06:16:13.179Z,100896.53
2022-10-20T06:21:28.629Z,100883.88
2022-10-20T06:26:36.720Z,100902.50
2022-10-20T06:31:41.050Z,100900.38
2022-10-20T06:36:43.480Z,100905.22
2022-10-20T06:41:50.813Z,100892.25
2022-10-20T06:46:55.525Z,100885.72
2022-10-20T06:51:57.742Z,100905.03
2022-10-20T06:56:59.952Z,100899.00
2022-10-20T07:02:02.181Z,100909.59
2022-10-20T07:07:03.918Z,100904.59
2022-10-20T07:12:05.788Z,100913.94
2022-10-20T07:17:07.712Z,100907.88
2022-10-20T07:22:09.436Z,100907.00
2022-10-20T07:27:11.081Z,100905.63
2022-10-20T07:32:12.891Z,100898.56
2022-10-20T07:37:14.607Z,100892.00
2022-10-20T07:42:16.309Z,100888.91
2022-10-20T07:47:18.007Z,100905.31
2022-10-20T07:52:19.887Z,100873.47
2022-10-20T07:57:21.705Z,100866.84
2022-10-20T08:02:23.713Z,100866.63
2022-10-20T08:07:25.508Z,100867.59
2022-10-20T08:12:27.321Z,100873.25
2022-10-20T08:17:29.112Z,100856.44
2022-10-20T08:22:30.927Z,100850.81
2022-10-20T08:27:32.662Z,100858.56
2022-10-20T08:32:34.549Z,100831.63
2022-10-20T08:37:37.190Z,100835.69
2022-10-20T08:42:42.243Z,100837.44
2022-10-20T08:47:46.144Z,100835.19
2022-10-20T08:52:54.760Z,100826.13
2022-10-20T08:58:03.851Z,100820.97
2022-10-20T09:03:30.866Z,100823.59
2022-10-20T09:08:39.503Z,100808.09
2022-10-20T09:13:44.442Z,100804.25
2022-10-20T09:18:50.965Z,100805.44
2022-10-20T09:24:03.438Z,100799.44
2022-10-20T09:29:15.336Z,100794.69
2022-10-20T09:34:23.297Z,100797.88
2022-10-20T09:39:36.241Z,100799.31
2022-10-20T09:44:47.010Z,100792.78
2022-10-20T09:49:59.927Z,100786.09
2022-10-20T09:55:30.755Z,100776.50
2022-10-20T10:00:50.546Z,100766.53
2022-10-20T10:06:01.168Z,100754.84
2022-10-20T10:11:16.426Z,100766.03
2022-10-20T10:16:22.048Z,100750.91
2022-10-20T10:21:24.407Z,100743.31
2022-10-20T10:26:47.957Z,100732.28
2022-10-20T10:32:26.060Z,100746.09
2022-10-20T10:37:33.856Z,100742.09
2022-10-20T10:43:01.941Z,100743.84
2022-10-20T10:48:12.736Z,100731.31
2022-10-20T10:53:59.815Z,100708.50
2022-10-20T10:59:27.945Z,100688.13
2022-10-20T11:04:43.506Z,100687.44
2022-10-20T11:10:51.022Z,100678.38
2022-10-20T11:16:28.805Z,100667.47
2022-10-20T11:22:17.024Z,100658.22
2022-10-20T11:27:25.862Z,100632.13
2022-10-20T11:37:50.822Z,100627.13
2022-10-20T11:43:19.580Z,100616.97
2022-10-20T11:48:38.861Z,100594.22
2022-10-20T11:54:11.594Z,100592.56
2022-10-20T11:59:53.006Z,100603.66
2022-10-20T12:05:20.204Z,100587.66
2022-10-20T12:10:49.955Z,100587.75
2022-10-20T12:15:52.450Z,100576.75
2022-10-20T12:21:17.156Z,100549.72
2022-10-20T12:26:30.291Z,100561.53
2022-10-20T12:32:09.404Z,100560.69
2022-10-20T12:37:19.947Z,100557.31
2022-10-20T12:42:38.214Z,100532.81
2022-10-20T12:47:52.123Z,100537.84
2022-10-20T12:52:54.314Z,100521.78
2022-10-20T12:58:19.047Z,100526.88
2022-10-20T13:03:49.616Z,100512.47
2022-10-20T13:09:07.188Z,100509.09
2022-10-20T13:14:12.202Z,100496.41
2022-10-20T13:19:31.500Z,100483.72
2022-10-20T13:24:44.087Z,100471.88
2022-10-20T13:29:48.538Z,100465.97
2022-10-20T13:35:51.508Z,100471.03
2022-10-20T13:41:48.030Z,100470.19
2022-10-20T13:47:36.257Z,100466.84
2022-10-20T13:52:46.438Z,100479.47
2022-10-20T14:09:30.325Z,100474.38
2022-10-20T14:20:30.094Z,100453.31
2022-10-20T14:25:32.991Z,100445.69
2022-10-20T14:30:38.734Z,100444.00
2022-10-20T14:35:53.362Z,100455.78
2022-10-20T14:41:06.036Z,100460.03
2022-10-20T14:46:29.558Z,100459.19
2022-10-20T14:57:35.281Z,100467.63
2022-10-20T15:02:58.385Z,100443.91
2022-10-20T15:14:01.205Z,100426.94
2022-10-20T15:19:36.343Z,100424.34
2022-10-20T15:24:42.794Z,100420.13
2022-10-20T15:29:55.386Z,100421.78
2022-10-20T15:34:57.050Z,100409.84
2022-10-20T15:39:59.759Z,100412.34
2022-10-20T15:45:01.595Z,100382.72
2022-10-20T15:50:06.350Z,100373.34
2022-10-20T16:00:48.213Z,100389.28
2022-10-20T16:05:54.519Z,100384.09
2022-10-20T16:11:08.901Z,100388.22
2022-10-20T16:28:12.489Z,100394.81
2022-10-20T16:33:42.829Z,100391.31
2022-10-20T16:57:40.509Z,100413.94
2022-10-20T17:03:02.859Z,100418.94
2022-10-20T17:08:21.000Z,100410.34
2022-10-20T17:13:24.551Z,100410.44
2022-10-20T17:24:15.535Z,100401.91
2022-10-20T17:29:18.581Z,100388.28
2022-10-20T17:34:24.054Z,100394.16
2022-10-20T17:39:28.896Z,100391.63
2022-10-20T17:44:30.621Z,100385.78
2022-10-20T17:49:32.399Z,100380.84
2022-10-20T17:54:43.289Z,100379.22
2022-10-20T17:59:52.885Z,100385.19
2022-10-20T18:05:01.046Z,100374.28
2022-10-20T18:10:10.817Z,100375.97
2022-10-20T18:27:05.119Z,100359.09
2022-10-20T18:32:15.609Z,100363.22
2022-10-20T18:37:20.379Z,100355.59
2022-10-20T18:42:22.301Z,100353.88
2022-10-20T18:59:00.715Z,100346.19
2022-10-20T19:04:10.297Z,100341.19
2022-10-20T19:09:23.599Z,100327.78
2022-10-20T19:14:31.382Z,100337.94
2022-10-20T19:19:38.268Z,100335.44
2022-10-20T19:24:47.698Z,100330.44
2022-10-20T19:30:07.761Z,100317.84
2022-10-20T19:41:12.201Z,100326.31
2022-10-20T19:46:22.129Z,100319.53
2022-10-20T19:57:15.610Z,100312.75
2022-10-20T20:02:32.033Z,100301.72
2022-10-20T20:07:38.815Z,100300.88
2022-10-20T20:13:01.959Z,100306.78
2022-10-20T20:24:27.012Z,100314.34
2022-10-20T20:35:16.495Z,100291.44
2022-10-20T20:41:22.463Z,100278.69
2022-10-20T20:46:31.208Z,100293.91
2022-10-20T20:51:34.069Z,100263.47
2022-10-20T20:56:40.122Z,100265.91
2022-10-20T21:07:08.082Z,100259.97
2022-10-20T21:18:01.779Z,100253.88
2022-10-20T21:23:12.539Z,100247.19
2022-10-20T21:28:25.556Z,100253.88
2022-10-20T21:55:37.735Z,100278.84
2022-10-20T22:00:42.084Z,100285.50
2022-10-20T22:05:44.010Z,100282.97
2022-10-20T22:16:44.989Z,100248.28
2022-10-20T22:27:44.277Z,100222.03
2022-10-20T22:33:14.497Z,100218.47
2022-10-20T22:38:16.449Z,100260.47
2022-10-20T22:43:25.328Z,100265.34
2022-10-20T23:00:22.272Z,100250.06
2022-10-20T23:05:34.406Z,100234.88
2022-10-20T23:16:13.494Z,100249.03
2022-10-20T23:21:19.213Z,100249.81
2022-10-20T23:26:35.756Z,100236.28
2022-10-20T23:31:57.139Z,100227.84
2022-10-20T23:37:18.952Z,100238.72
2022-10-20T23:42:23.442Z,100222.50
2022-10-20T23:47:28.338Z,100236.91
